Terminal Aerodrome Forecast
Issued by NWS Omaha/Valley, NE

Home | Current Version | Previous Version | Text Only | Print | Product List | Glossary Off
Versions: 1 2 3 4 5 6 7 8 9 10 11 12 13 14 15 16 17 18 19 20 21 22 23 24 25 26 27 28 29 30

966
FTUS43 KOAX 271732
TAFOFK
TAF
KOFK 271732Z 2718/2818 16018G28KT P6SM SCT250
     FM280000 15017KT P6SM BKN150
     FM280400 16018KT P6SM VCTS OVC100CB
      TEMPO 2804/2806 VRB30G40KT 1SM +TSRA SCT020 BKN040CB
     FM280700 17014G27KT P6SM -SHRA VCTS OVC090CB
     FM280900 19011G22KT P6SM BKN130
     FM281100 20009KT P6SM BKN150
     FM281400 25010KT P6SM FEW150
     FM281600 28012KT P6SM FEW200=

USA.gov is the U.S. government's official web portal to all federal, state and local government web resources and services.